Impacts TAF Board INFO
FOR SITUATIONAL AWARENESS. NOT TO BE USED FOR FLIGHT PLANNING PURPOSES.
IDs:

KMGM - Montgomery/Dannely F, AL, US

Issued at 1740 UTC 15 Aug 2018
Updated at 2044 UTC 15 Aug 2018
Potential Impact None Slight Moderate High
Time1953Z 15/21Z 15/22Z 15/23Z 16/00Z 16/01Z 16/02Z 16/03Z 16/04Z 16/05Z 16/06Z 16/07Z 16/08Z 16/09Z>>
Type OBS PRVL PRVL PRVL PRVL PRVL PRVL PRVL PRVL PRVL PRVL PRVL PRVL PRVL
VIS 10 >6 >6 >6 >6 >6 >6 >6 >6 >6 >6 >6 >6 >6
CIG -- -- -- -- -- -- -- -- -- -- -- -- -- --
Cover FEW SCT SCT SCT SCT SCT SCT SCT SCT SCT SCT SCT SCT SCT
FltCat VFR VFR VFR VFR VFR VFR VFR VFR VFR VFR VFR VFR VFR VFR
WX -- VCTS VCTS VCTS VCTS -- -- -- -- -- -- -- -- --
WDir 160 110 110 110 110 VRB VRB VRB VRB VRB VRB VRB VRB VRB
WSpd 4 5 5 5 5 0 0 0 0 0 0 0 0 0
WGst -- -- -- -- -- -- -- -- -- -- -- -- -- --

Raw TAF
KMGM 151740Z 1518/1618 VRB03KT P6SM FEW040 FEW250
  FM152100 11005KT P6SM VCTS SCT050CB SCT250
  FM160100 00000KT P6SM SCT250
  FM161000 00000KT 4SM BR SKC
  FM161400 14004KT P6SM SCT250


Raw METAR
KMGM 151953Z 16004KT 10SM FEW050 34/23 A3004 RMK AO2 SLP169 T03390228
KMGM 151853Z VRB03KT 10SM FEW037 SCT049 33/23 A3006 RMK AO2 SLP176 T03280233
KMGM 151753Z VRB06KT 10SM CLR 33/24 A3008 RMK AO2 SLP182 T03280239 10328 20217 58004

METAR Board
Radar Display
Forecast Discussion

FOR SITUATIONAL AWARENESS. NOT TO BE USED FOR FLIGHT PLANNING PURPOSES.